首页
METAR-TAF:

METAR-TAF

机场 :

New Richmond Regional Airport

New Richmond, 威斯康辛州, 美国

纬度: 45-08-54N, 经度: 092-32-17W, 海拔: 304米

当前天气观测

该预报发布于36分钟前的19:15 UTC
风速10节,风向西转西南
温度 -1°C
湿度 46%
气压 1022 hPa
能見度: 16.1公里
天空无云

METAR: KRNH 141915Z AUTO 24010KT 10SM CLR M01/M11 A3019 RMK AO2 T10151107

时间: 13:51 (19:51 UTC)

预报

该预报发布于2小时和12分钟前的17:39 UTC
预报有效从14日的 18点(UTC)到 15日的 18点(UTC)
风速8节,风向西转西南
能見度: 10公里
天空无云
从 14日的 2100点(UTC)
风速7节,风向西南
能見度: 10公里
多云层高于6000英尺
从 15日的 0400点(UTC)
风速7节,风向西转西南
能見度: 10公里
阴天层高于2500英尺
从 15日的 1000点(UTC)
风速5节,风向西转西北
能見度: 10公里
阴天层高于1500英尺

TAF: KRNH 141739Z 1418/1518 25008KT P6SM SKC FM142100 23007KT P6SM BKN060 FM150400 25007KT P6SM OVC025 FM151000 29005KT P6SM OVC015

超过4000个机场的气象观测和天气预报(METAR&TAF报告)。

可查询的气象台以黄色和红色小点在地图上表示。

将鼠标移到小点上方,可查看气象台名称。

然后点击查看天气观测和预报。

如需切换地图:点击带黑十字的绿色按钮放大地图;点击带横线的绿色按钮缩小地图;或者点击绿色箭头查看邻近地区的地图。


METAR-TAF: